Flight Track Log - Related Links

Times and Time Zones

All times are in EDT time to prevent confusion due to time zone crossing. See the DAL268 flight status page for this flight to view local times or setup timezone preferences in your user account.

Time Position Orientation Groundspeed Altitude Reporting Facility
EDT Latitude Longitude Course Direction KTS km/h feet Rate Location/Type
Sat 18:48:53 33.6306 -84.4878 64° Northeast 430 797 2,500  Level Atlanta Center
Sat 18:49:18 33.6167 -84.5167 240° Southwest 230 426 3,200 2,505 Climbing Atlanta TRACON
Sat 18:50:24 33.5667 -84.5833 228° Southwest 281 520 6,300 2,177 Climbing Atlanta TRACON
Sat 18:51:00 33.7090 -83.9868 101° East  Level FlightAware Approximate
Sat 18:52:00 33.6848 -83.8417 101° East  Level FlightAware Approximate
Sat 18:52:53 33.4511 -84.4544 137° Southeast 248 459 11,000  Level Atlanta Center
Sat 18:53:00 33.6606 -83.6966 101° East  Level FlightAware Approximate
Sat 18:53:53 33.4558 -84.3250 87° East 313 579 12,700  Level Atlanta Center
Sat 18:54:00 33.6806 -83.5585 64° Northeast  Level FlightAware Approximate
Sat 18:54:53 33.4914 -84.1933 72° East 380 703 15,000  Level Atlanta Center
Sat 18:55:53 33.5458 -84.0611 64° Northeast 409 758 17,000 1,900 Climbing Atlanta Center
Sat 18:56:53 33.6000 -83.9267 64° Northeast 434 803 18,800 1,800 Climbing Atlanta Center
Sat 18:57:53 33.6333 -83.7819 74° East 449 832 20,600 1,650 Climbing Atlanta Center
Sat 18:58:53 33.6683 -83.6269 75° East 466 863 22,100 1,450 Climbing Atlanta Center
Sat 18:59:53 33.7283 -83.4694 65° Northeast 474 877 23,500 1,450 Climbing Atlanta Center
Sat 19:00:53 33.7858 -83.3189 65° Northeast 481 892 25,000 1,650 Climbing Atlanta Center
Sat 19:01:53 33.8456 -83.1733 64° Northeast 487 901 26,800 1,500 Climbing Atlanta Center
Sat 19:02:53 33.9028 -83.0253 65° Northeast 481 892 28,000 1,150 Climbing Atlanta Center
Sat 19:03:53 33.9661 -82.8767 63° Northeast 486 900 29,100 1,250 Climbing Atlanta Center
Sat 19:04:53 34.0272 -82.7328 63° Northeast 481 892 30,500 950 Climbing Atlanta Center
Sat 19:05:53 34.0861 -82.5867 64° Northeast 481 892 31,000 250 Climbing Atlanta Center
Sat 19:06:53 34.1450 -82.4525 62° Northeast 481 892 31,000  Level Atlanta Center
Sat 19:07:53 34.2119 -82.3056 61° Northeast 487 901 31,000  Level Atlanta Center
Sat 19:08:53 34.2786 -82.1583 61° Northeast 498 922 31,000  Level Atlanta Center
Sat 19:09:53 34.3472 -82.0083 61° Northeast 498 922 31,000  Level Atlanta Center
Sat 19:10:53 34.4178 -81.8633 59° Northeast 503 932 31,000  Level Atlanta Center
Sat 19:11:53 34.4861 -81.7128 61° Northeast 503 932 31,000  Level Atlanta Center
Sat 19:12:53 34.5561 -81.5619 61° Northeast 508 941 31,000  Level Atlanta Center
Sat 19:13:53 34.6281 -81.4108 60° Northeast 508 941 31,000  Level Atlanta Center
Sat 19:14:53 34.7058 -81.2467 60° Northeast 508 941 31,000  Level Atlanta Center
Sat 19:15:53 34.7794 -81.0900 60° Northeast 520 962 31,000  Level Atlanta Center
Sat 19:16:53 34.8467 -80.9383 62° Northeast 520 962 31,000 50 Level Atlanta Center
Sat 19:17:53 34.9197 -80.7836 60° Northeast 515 954 31,100 611 Climbing Atlanta Center
Sat 19:19:40 35.0383 -80.5208 61° Northeast 548 1015 32,700 683 Climbing Washington Center
Sat 19:20:40 35.1092 -80.3653 61° Northeast 526 974 33,000 150 Climbing Washington Center
Sat 19:21:40 35.1825 -80.2044 61° Northeast 526 974 33,000  Level Washington Center
Sat 19:22:40 35.2619 -80.0308 61° Northeast 526 974 33,000  Level Washington Center
Sat 19:23:40 35.3325 -79.8692 62° Northeast 526 974 33,000  Level Washington Center
Sat 19:24:40 35.4050 -79.7050 62° Northeast 526 974 33,000  Level Washington Center
Sat 19:25:40 35.4794 -79.5431 61° Northeast 526 974 33,000  Level Washington Center
Sat 19:26:40 35.5536 -79.3781 61° Northeast 531 983 33,000  Level Washington Center
Sat 19:27:40 35.6233 -79.2153 62° Northeast 531 983 33,000  Level Washington Center
Sat 19:28:40 35.6903 -79.0675 61° Northeast 531 983 33,000  Level Washington Center
Sat 19:29:40 35.7642 -78.8967 62° Northeast 542 1004 33,000  Level Washington Center
Sat 19:30:40 35.8375 -78.7281 62° Northeast 547 1012 33,000  Level Washington Center
Sat 19:31:40 35.9108 -78.5567 62° Northeast 547 1012 33,000  Level Washington Center
Sat 19:32:40 35.9836 -78.3872 62° Northeast 547 1012 33,000  Level Washington Center
Sat 19:33:39 36.0542 -78.2203 62° Northeast 547 1012 33,000  Level Washington Center
Sat 19:34:40 36.1267 -78.0531 62° Northeast 542 1004 33,000  Level Washington Center
Sat 19:35:40 36.1944 -77.8931 62° Northeast 542 1004 33,000  Level Washington Center
Sat 19:36:40 36.2644 -77.7275 62° Northeast 537 995 33,000  Level Washington Center
Sat 19:37:40 36.3317 -77.5669 63° Northeast 531 983 33,000  Level Washington Center
Sat 19:38:40 36.4033 -77.3881 63° Northeast 526 974 33,000  Level Washington Center
Sat 19:39:40 36.4831 -77.2244 59° Northeast 531 983 33,000  Level Washington Center
Sat 19:40:39 36.5911 -77.0897 45° Northeast 540 999 33,000  Level Washington Center
Sat 19:41:39 36.7094 -76.9625 41° Northeast 540 999 33,000  Level Washington Center
Sat 19:42:40 36.8256 -76.8347 41° Northeast 550 1019 33,000  Level Washington Center
Sat 19:43:40 36.9331 -76.7194 41° Northeast 556 1030 33,000  Level Washington Center
Sat 19:44:40 37.0489 -76.5911 41° Northeast 556 1030 33,000 -908 Level Washington Center
Sat 19:45:39 37.1667 -76.4650 40° Northeast 556 1030 31,200 -1,008 Descending Washington Center
Sat 19:46:39 37.2844 -76.3331 42° Northeast 556 1030 31,000 -100 Descending Washington Center
Sat 19:47:39 37.4042 -76.2036 41° Northeast 556 1030 31,000  Level Washington Center
Sat 19:48:40 37.5383 -76.0553 41° Northeast 567 1049 31,000  Level Washington Center
Sat 19:49:39 37.6575 -75.9250 41° Northeast 567 1049 31,000  Level Washington Center
Sat 19:50:40 37.7747 -75.7914 42° Northeast 567 1049 31,000  Level Washington Center
Sat 19:51:39 37.8958 -75.6575 41° Northeast 567 1049 31,000  Level Washington Center
Sat 19:52:39 38.0167 -75.5233 41° Northeast 567 1049 31,000  Level Washington Center
Sat 19:53:40 38.1522 -75.4094 33° Northeast 567 1049 31,000  Level Washington Center
Sat 19:54:40 38.2958 -75.3167 27° Northeast 572 1059 31,000 -50 Level Washington Center
Sat 19:55:40 38.4269 -75.2314 27° Northeast 572 1059 30,900  Descending Washington Center
Sat 19:56:40 38.5747 -75.1428 25° Northeast 572 1059 31,000 50 Climbing Washington Center
Sat 19:57:40 38.7203 -75.0489 27° Northeast 577 1069 31,000 -200 Level Washington Center
Sat 19:58:40 38.8656 -74.9572 26° Northeast 577 1069 30,600 -1,350 Descending Washington Center
Sat 19:59:40 39.0111 -74.8622 27° Northeast 577 1069 28,300 -2,150 Descending Washington Center
Sat 20:00:40 39.1439 -74.7592 31° Northeast 564 1044 26,300 -2,160 Descending Washington Center
Sat 20:02:35 39.3617 -74.5247 40° Northeast 518 959 22,000 -2,207 Descending New York Center
Sat 20:03:34 39.4656 -74.4092 41° Northeast 499 924 19,900 -2,017 Descending New York Center
Sat 20:04:34 39.5497 -74.3114 42° Northeast 467 864 18,000 -992 Descending New York Center
Sat 20:05:35 39.6486 -74.2083 39° Northeast 452 837 17,900 -1,388 Descending New York Center
Sat 20:06:35 39.7522 -74.0919 41° Northeast 445 824 15,200 -2,400 Descending New York Center
Sat 20:07:35 39.8425 -73.9936 40° Northeast 434 803 13,100 -1,866 Descending New York Center
Sat 20:08:34 39.9361 -73.9194 31° Northeast 408 756 11,500 -1,059 Descending New York Center
Sat 20:09:34 40.0128 -73.8578 32° Northeast 375 695 11,000 -298 Descending New York Center
Sat 20:10:35 40.0961 -73.7856 34° Northeast 332 615 10,900 -645 Descending New York Center
Sat 20:11:35 40.1664 -73.7233 34° Northeast 315 583 9,700 -1,120 Descending New York Center
Sat 20:11:50 40.1833 -73.7000 46° Northeast 299 554 9,500 -1,200 Descending New York TRACON
Sat 20:12:50 40.2500 -73.6500 30° Northeast 283 525 8,200 -1,472 Descending New York TRACON
Sat 20:13:36 40.3006 -73.6094 31° Northeast 278 515 6,900 -1,698 Descending New York Center
Sat 20:14:36 40.3619 -73.5656 29° Northeast 267 494 5,200 -1,875 Descending New York Center
Sat 20:14:56 40.3833 -73.5500 29° Northeast 256 475 4,400 -975 Descending New York TRACON
Sat 20:15:56 40.4500 -73.5167 21° North 253 468 3,900 -614 Descending New York TRACON
Sat 20:17:03 40.5333 -73.5167 360° North 250 463 3,100 -429 Descending New York TRACON
Sat 20:18:02 40.6000 -73.5333 349° North 239 443 3,000 -300 Descending New York TRACON
Sat 20:19:03 40.6500 -73.5667 333° Northwest 219 406 2,500 -600 Descending New York TRACON
Sat 20:20:02 40.6833 -73.6000 323° Northwest 166 307 1,800 -712 Descending New York TRACON

Login

Don't have an account? Register now (free) for customized features, flight alerts, and more!